Terminal Aerodrome Forecast
Issued by NWS

Home | Current Version | Previous Version | Text Only | Print | Product List | Glossary On
Versions: 1 2 3 4 5 6 7 8 9 10 11 12 13 14 15 16 17 18 19 20 21 22 23 24 25 26
000
FTUS45 KGJT 281730
TAFTEX
TAF
KTEX 281730Z 2818/2918 00000KT P6SM VCTS SCT045 BKN060CB
      TEMPO 2819/2823 VRB15G25KT -TSRA BKN040 OVC060CB
     FM282300 25005KT P6SM VCTS SCT045 BKN060CB
      TEMPO 2823/2903 VRB15G25KT -TSRA BKN040 OVC060CB
     FM290300 VRB03KT P6SM -SHRA OVC100
     FM290800 VRB03KT P6SM VCSH SCT060 BKN100
     FM291200 VRB03KT P6SM VCSH BKN100=

USA.gov is the U.S. government's official web portal to all federal, state and local government web resources and services.